createdAt,value
2019-03-30T00:00:40.741Z,2.10
2019-03-30T00:04:46.311Z,2.00
2019-03-30T00:08:51.743Z,1.90
2019-03-30T00:12:57.590Z,1.90
2019-03-30T00:17:03.038Z,1.80
2019-03-30T00:21:08.600Z,1.80
2019-03-30T00:25:14.140Z,1.80
2019-03-30T00:29:19.589Z,1.70
2019-03-30T00:33:25.141Z,1.70
2019-03-30T00:37:30.587Z,1.70
2019-03-30T00:41:36.058Z,1.60
2019-03-30T00:45:41.677Z,1.60
2019-03-30T00:49:49.772Z,1.50
2019-03-30T00:53:54.382Z,1.50
2019-03-30T00:58:00.214Z,1.40
2019-03-30T01:02:05.717Z,1.40
2019-03-30T01:06:11.673Z,1.40
2019-03-30T01:10:17.383Z,1.30
2019-03-30T01:14:22.906Z,1.20
2019-03-30T01:18:28.529Z,1.20
2019-03-30T01:22:34.132Z,1.10
2019-03-30T01:26:39.880Z,1.10
2019-03-30T01:30:45.623Z,1.10
2019-03-30T01:34:51.298Z,1.10
2019-03-30T01:38:56.746Z,1.10
2019-03-30T01:43:02.222Z,1.00
2019-03-30T01:47:07.734Z,1.00
2019-03-30T01:51:13.343Z,0.90
2019-03-30T01:55:18.746Z,0.80
2019-03-30T01:59:24.671Z,0.80
2019-03-30T02:03:30.222Z,0.80
2019-03-30T02:07:35.710Z,0.80
2019-03-30T02:11:41.233Z,0.70
2019-03-30T02:15:46.780Z,0.60
2019-03-30T02:19:52.363Z,0.50
2019-03-30T02:23:57.891Z,0.50
2019-03-30T02:28:06.640Z,0.40
2019-03-30T02:32:10.487Z,0.40
2019-03-30T02:36:16.028Z,0.40
2019-03-30T02:40:21.453Z,0.40
2019-03-30T02:44:27.057Z,0.40
2019-03-30T02:48:32.524Z,0.40
2019-03-30T02:52:38.140Z,0.40
2019-03-30T02:56:43.759Z,0.30
2019-03-30T03:00:49.401Z,0.20
2019-03-30T03:04:54.850Z,0.20
2019-03-30T03:09:00.265Z,0.10
2019-03-30T03:13:05.775Z,0.20
2019-03-30T03:17:11.256Z,0.20
2019-03-30T03:21:16.954Z,0.10
2019-03-30T03:25:22.380Z,0.10
2019-03-30T03:29:27.834Z,0.10
2019-03-30T03:33:33.467Z,0.00
2019-03-30T03:37:45.495Z,-0.10
2019-03-30T03:41:46.415Z,0.00
2019-03-30T03:45:52.151Z,-0.10
2019-03-30T03:49:57.600Z,-0.10
2019-03-30T03:54:03.906Z,-0.20
2019-03-30T03:58:11.057Z,-0.20
2019-03-30T04:02:17.371Z,-0.10
2019-03-30T04:06:25.291Z,-0.10
2019-03-30T04:10:33.953Z,-0.20
2019-03-30T04:14:41.579Z,-0.10
2019-03-30T04:18:48.317Z,-0.30
2019-03-30T04:22:54.862Z,-0.40
2019-03-30T04:27:00.542Z,-0.70
2019-03-30T04:31:05.985Z,-0.30
2019-03-30T04:35:11.903Z,-0.90
2019-03-30T04:39:17.346Z,-0.40
2019-03-30T04:43:23.010Z,-0.60
2019-03-30T04:47:28.462Z,-0.40
2019-03-30T04:51:34.262Z,-0.40
2019-03-30T04:55:40.219Z,-0.40
2019-03-30T04:59:46.899Z,-0.40
2019-03-30T05:03:52.384Z,-0.40
2019-03-30T05:07:57.819Z,-0.30
2019-03-30T05:12:03.502Z,-0.20
2019-03-30T05:16:08.966Z,-0.10
2019-03-30T05:20:14.515Z,0.00
2019-03-30T05:24:19.959Z,-0.20
2019-03-30T05:28:25.418Z,0.00
2019-03-30T05:32:31.027Z,0.10
2019-03-30T05:36:36.462Z,0.10
2019-03-30T05:40:42.036Z,0.10
2019-03-30T05:44:47.478Z,0.20
2019-03-30T05:48:53.326Z,0.40
2019-03-30T05:52:58.925Z,0.50
2019-03-30T05:57:04.332Z,0.60
2019-03-30T06:01:09.774Z,0.70
2019-03-30T06:05:15.215Z,0.80
2019-03-30T06:09:20.666Z,1.00
2019-03-30T06:13:26.225Z,1.10
2019-03-30T06:17:31.663Z,1.30
2019-03-30T06:21:37.135Z,1.40
2019-03-30T06:25:42.709Z,1.50
2019-03-30T06:30:14.923Z,1.70
2019-03-30T06:34:20.373Z,1.90
2019-03-30T06:38:25.835Z,2.20
2019-03-30T06:42:31.369Z,2.30
2019-03-30T06:46:39.471Z,2.60
2019-03-30T06:50:44.503Z,2.90
2019-03-30T06:54:49.925Z,3.30
2019-03-30T06:58:55.379Z,3.70
2019-03-30T07:03:01.442Z,4.10
2019-03-30T07:07:08.129Z,4.40
2019-03-30T07:11:21.047Z,4.80
2019-03-30T07:15:21.980Z,5.20
2019-03-30T07:19:30.550Z,5.70
2019-03-30T07:23:36.448Z,6.30
2019-03-30T07:27:42.095Z,6.90
2019-03-30T07:31:47.815Z,7.50
2019-03-30T07:35:53.832Z,8.10
2019-03-30T07:39:59.693Z,8.70
2019-03-30T07:44:06.344Z,9.20
2019-03-30T07:48:12.057Z,9.60
2019-03-30T07:52:17.926Z,9.90
2019-03-30T07:56:23.409Z,10.40
2019-03-30T08:00:30.841Z,10.70
2019-03-30T08:04:36.240Z,11.00
2019-03-30T08:08:41.815Z,11.40
2019-03-30T08:12:47.305Z,11.50
2019-03-30T08:16:52.799Z,11.60
2019-03-30T08:20:58.229Z,11.90
2019-03-30T08:25:03.951Z,12.00
2019-03-30T08:29:10.500Z,12.50
2019-03-30T08:33:16.018Z,13.30
2019-03-30T08:37:21.525Z,14.40
2019-03-30T08:41:27.039Z,15.90
2019-03-30T08:45:32.534Z,16.80
2019-03-30T08:49:38.385Z,17.30
2019-03-30T08:53:54.076Z,18.30
2019-03-30T08:57:51.597Z,19.50
2019-03-30T09:01:59.246Z,20.40
2019-03-30T09:06:05.763Z,20.40
2019-03-30T09:10:12.515Z,19.30
2019-03-30T09:14:18.068Z,20.50
2019-03-30T09:18:25.598Z,21.10
2019-03-30T09:22:31.436Z,21.70
2019-03-30T09:26:38.374Z,21.60
2019-03-30T09:30:45.239Z,21.80
2019-03-30T09:34:51.947Z,21.50
2019-03-30T09:38:57.755Z,21.70
2019-03-30T09:43:06.521Z,21.90
2019-03-30T09:47:14.026Z,22.50
2019-03-30T09:51:21.993Z,23.00
2019-03-30T09:55:28.787Z,22.50
2019-03-30T09:59:36.109Z,23.20
2019-03-30T10:03:43.418Z,23.90
2019-03-30T10:07:49.797Z,24.10
2019-03-30T10:11:57.303Z,24.20
2019-03-30T10:16:05.499Z,25.20
2019-03-30T10:20:13.133Z,25.10
2019-03-30T10:24:21.358Z,23.90
2019-03-30T10:28:28.843Z,23.60
2019-03-30T10:32:34.867Z,22.60
2019-03-30T10:36:41.315Z,22.60
2019-03-30T10:40:49.293Z,23.30
2019-03-30T10:44:55.285Z,23.80
2019-03-30T10:49:02.369Z,23.30
2019-03-30T10:53:09.838Z,22.60
2019-03-30T10:57:17.347Z,23.40
2019-03-30T11:01:23.607Z,24.50
2019-03-30T11:05:34.294Z,25.50
2019-03-30T11:09:40.988Z,26.20
2019-03-30T11:13:47.491Z,26.80
2019-03-30T11:17:56.758Z,27.30
2019-03-30T11:22:03.647Z,27.30
2019-03-30T11:26:10.063Z,27.80
2019-03-30T11:30:16.436Z,28.30
2019-03-30T11:34:21.886Z,28.10
2019-03-30T11:38:28.010Z,28.40
2019-03-30T11:42:34.789Z,29.10
2019-03-30T11:46:40.473Z,29.60
2019-03-30T11:50:47.111Z,28.60
2019-03-30T11:54:53.636Z,29.00
2019-03-30T11:59:00.806Z,27.60
2019-03-30T12:03:07.536Z,28.40
2019-03-30T12:07:13.448Z,28.90
2019-03-30T12:11:19.903Z,28.50
2019-03-30T12:15:28.619Z,29.00
2019-03-30T12:19:36.476Z,29.10
2019-03-30T12:24:01.279Z,29.20
2019-03-30T12:28:07.485Z,30.20
2019-03-30T12:32:13.803Z,29.40
2019-03-30T12:36:20.234Z,29.70
2019-03-30T12:40:32.054Z,30.50
2019-03-30T12:44:38.300Z,30.10
2019-03-30T12:48:47.411Z,29.50
2019-03-30T12:53:06.692Z,30.70
2019-03-30T12:57:14.301Z,30.80
2019-03-30T13:01:24.668Z,30.70
2019-03-30T13:05:31.735Z,31.00
2019-03-30T13:09:38.752Z,30.40
2019-03-30T13:13:44.452Z,31.90
2019-03-30T13:17:51.128Z,31.80
2019-03-30T13:21:59.195Z,30.40
2019-03-30T13:26:05.687Z,31.80
2019-03-30T13:30:14.815Z,33.40
2019-03-30T13:34:21.421Z,33.00
2019-03-30T13:38:28.252Z,33.00
2019-03-30T13:42:34.643Z,32.90
2019-03-30T13:46:45.483Z,32.00
2019-03-30T13:50:53.264Z,32.50
2019-03-30T13:54:59.686Z,32.40
2019-03-30T13:59:08.402Z,31.60
2019-03-30T14:03:14.153Z,30.80
2019-03-30T14:07:22.632Z,29.10
2019-03-30T14:11:28.195Z,30.10
2019-03-30T14:15:39.595Z,30.80
2019-03-30T14:19:48.243Z,31.10
2019-03-30T14:23:55.704Z,32.30
2019-03-30T14:28:02.555Z,31.80
2019-03-30T14:32:09.721Z,31.40
2019-03-30T14:36:15.169Z,31.50
2019-03-30T14:40:28.018Z,31.50
2019-03-30T14:44:35.310Z,33.00
2019-03-30T14:48:40.919Z,33.50
2019-03-30T14:52:49.501Z,32.10
2019-03-30T14:56:55.419Z,31.30
2019-03-30T15:01:03.319Z,29.80
2019-03-30T15:05:12.900Z,25.00
2019-03-30T15:09:19.294Z,22.20
2019-03-30T15:13:26.245Z,20.50
2019-03-30T15:17:33.440Z,20.00
2019-03-30T15:21:44.568Z,19.70
2019-03-30T15:25:52.747Z,19.00
2019-03-30T15:29:58.919Z,18.30
2019-03-30T15:34:09.441Z,17.80
2019-03-30T15:38:17.478Z,17.50
2019-03-30T15:42:24.856Z,17.30
2019-03-30T15:46:32.210Z,17.20
2019-03-30T15:50:40.756Z,17.10
2019-03-30T15:54:48.103Z,16.90
2019-03-30T15:58:53.655Z,16.70
2019-03-30T16:03:03.201Z,16.50
2019-03-30T16:07:10.899Z,16.10
2019-03-30T16:11:22.541Z,15.90
2019-03-30T16:15:30.734Z,15.90
2019-03-30T16:19:38.841Z,15.90
2019-03-30T16:23:48.395Z,15.60
2019-03-30T16:27:56.521Z,15.40
2019-03-30T16:32:03.033Z,15.10
2019-03-30T16:36:09.474Z,14.90
2019-03-30T16:40:15.537Z,14.60
2019-03-30T16:44:22.193Z,14.30
2019-03-30T16:48:29.420Z,14.00
2019-03-30T16:52:36.852Z,13.70
2019-03-30T16:56:45.951Z,13.40
2019-03-30T17:00:56.876Z,13.20
2019-03-30T17:05:00.673Z,13.00
2019-03-30T17:09:09.150Z,12.80
2019-03-30T17:13:16.440Z,12.60
2019-03-30T17:17:23.432Z,12.40
2019-03-30T17:21:31.963Z,12.00
2019-03-30T17:25:38.442Z,11.70
2019-03-30T17:29:45.769Z,11.40
2019-03-30T17:33:53.437Z,11.30
2019-03-30T17:38:01.295Z,11.10
2019-03-30T17:42:08.290Z,10.80
2019-03-30T17:46:14.934Z,10.60
2019-03-30T17:50:23.654Z,10.30
2019-03-30T17:54:29.784Z,10.10
2019-03-30T17:58:38.314Z,10.00
2019-03-30T18:02:46.947Z,9.80
2019-03-30T18:06:53.426Z,9.60
2019-03-30T18:11:04.279Z,9.50
2019-03-30T18:15:11.996Z,9.20
2019-03-30T18:19:20.143Z,9.00
2019-03-30T18:23:26.393Z,8.90
2019-03-30T18:27:37.791Z,8.70
2019-03-30T18:31:46.227Z,8.60
2019-03-30T18:35:59.280Z,8.50
2019-03-30T18:40:07.032Z,8.30
2019-03-30T18:44:13.928Z,8.20
2019-03-30T18:48:23.249Z,8.10
2019-03-30T18:52:30.206Z,7.90
2019-03-30T18:56:36.878Z,7.80
2019-03-30T19:00:42.338Z,7.60
2019-03-30T19:04:49.126Z,7.50
2019-03-30T19:08:55.525Z,7.40
2019-03-30T19:13:13.762Z,7.30
2019-03-30T19:17:20.070Z,7.20
2019-03-30T19:21:27.555Z,7.10
2019-03-30T19:25:33.766Z,7.10
2019-03-30T19:29:41.205Z,6.90
2019-03-30T19:33:49.542Z,6.80
2019-03-30T19:37:56.428Z,6.70
2019-03-30T19:42:03.087Z,6.60
2019-03-30T19:46:10.235Z,6.50
2019-03-30T19:50:22.319Z,6.50
2019-03-30T19:54:27.935Z,6.40
2019-03-30T19:58:35.889Z,6.40
2019-03-30T20:02:44.620Z,6.30
2019-03-30T20:06:58.557Z,6.20
2019-03-30T20:11:12.052Z,6.10
2019-03-30T20:15:19.498Z,6.00
2019-03-30T20:19:26.074Z,5.90
2019-03-30T20:23:37.861Z,5.80
2019-03-30T20:27:44.862Z,5.80
2019-03-30T20:31:53.904Z,5.70
2019-03-30T20:35:59.462Z,5.60
2019-03-30T20:40:06.421Z,5.60
2019-03-30T20:44:17.026Z,5.50
2019-03-30T20:48:26.375Z,5.40
2019-03-30T20:52:33.385Z,5.40
2019-03-30T20:56:47.299Z,5.30
2019-03-30T21:00:54.639Z,5.20
2019-03-30T21:05:05.012Z,5.20
2019-03-30T21:09:13.554Z,5.10
2019-03-30T21:13:21.947Z,5.00
2019-03-30T21:17:29.505Z,5.00
2019-03-30T21:21:39.414Z,4.90
2019-03-30T21:25:47.884Z,4.80
2019-03-30T21:29:55.278Z,4.80
2019-03-30T21:34:03.597Z,4.70
2019-03-30T21:38:21.076Z,4.70
2019-03-30T21:42:29.905Z,4.60
2019-03-30T21:46:56.482Z,4.60
2019-03-30T21:51:16.551Z,4.60
2019-03-30T21:55:33.325Z,4.50
2019-03-30T21:59:40.796Z,4.40
2019-03-30T22:03:46.608Z,4.40
2019-03-30T22:07:54.166Z,4.40
2019-03-30T22:12:07.440Z,4.30
2019-03-30T22:16:21.816Z,4.20
2019-03-30T22:20:33.112Z,4.20
2019-03-30T22:24:40.034Z,4.10
2019-03-30T22:28:47.760Z,4.10
2019-03-30T22:32:54.482Z,4.00
2019-03-30T22:37:00.698Z,4.00
2019-03-30T22:41:06.354Z,3.90
2019-03-30T22:45:13.737Z,3.90
2019-03-30T22:49:20.870Z,3.90
2019-03-30T22:53:27.663Z,3.80
2019-03-30T22:57:34.560Z,3.70
2019-03-30T23:01:40.675Z,3.70
2019-03-30T23:05:48.343Z,3.70
2019-03-30T23:09:55.257Z,3.60
2019-03-30T23:14:01.085Z,3.60
2019-03-30T23:18:08.397Z,3.60
2019-03-30T23:22:14.166Z,3.50
2019-03-30T23:26:20.768Z,3.40
2019-03-30T23:30:28.059Z,3.40
2019-03-30T23:34:34.957Z,3.30
2019-03-30T23:38:43.327Z,3.30
2019-03-30T23:42:53.072Z,3.30
2019-03-30T23:47:03.671Z,3.20
2019-03-30T23:51:10.662Z,3.20
2019-03-30T23:55:18.893Z,3.20
2019-03-30T23:59:25.522Z,3.10
